sensor_id;sensor_type;location;lat;lon;timestamp;pressure;altitude;pressure_sealevel;temperature;humidity
65800;BME280;52544;48.116;11.660;2023-02-01T00:01:55;96160.38;;;3.64;77.65
65800;BME280;52544;48.116;11.660;2023-02-01T00:04:20;96152.47;;;3.65;77.86
65800;BME280;52544;48.116;11.660;2023-02-01T00:06:46;96157.53;;;3.68;77.47
65800;BME280;52544;48.116;11.660;2023-02-01T00:09:11;96158.94;;;3.75;77.25
65800;BME280;52544;48.116;11.660;2023-02-01T00:11:47;96152.00;;;3.74;76.85
65800;BME280;52544;48.116;11.660;2023-02-01T00:14:12;96147.91;;;3.69;76.98
65800;BME280;52544;48.116;11.660;2023-02-01T00:16:38;96155.63;;;3.72;76.56
65800;BME280;52544;48.116;11.660;2023-02-01T00:19:06;96148.25;;;3.80;75.79
65800;BME280;52544;48.116;11.660;2023-02-01T00:21:33;96135.00;;;3.83;74.75
65800;BME280;52544;48.116;11.660;2023-02-01T00:23:59;96138.84;;;3.76;75.88
65800;BME280;52544;48.116;11.660;2023-02-01T00:26:36;96134.59;;;3.73;75.86
65800;BME280;52544;48.116;11.660;2023-02-01T00:29:04;96135.16;;;3.80;75.67
65800;BME280;52544;48.116;11.660;2023-02-01T00:31:29;96130.47;;;3.87;75.61
65800;BME280;52544;48.116;11.660;2023-02-01T00:33:55;96132.44;;;3.82;75.25
65800;BME280;52544;48.116;11.660;2023-02-01T00:36:20;96130.53;;;3.85;75.66
65800;BME280;52544;48.116;11.660;2023-02-01T00:38:46;96129.59;;;3.86;75.58
65800;BME280;52544;48.116;11.660;2023-02-01T00:41:13;96124.28;;;3.88;75.91
65800;BME280;52544;48.116;11.660;2023-02-01T00:43:39;96137.69;;;3.82;76.02
65800;BME280;52544;48.116;11.660;2023-02-01T00:46:05;96125.44;;;3.82;76.51
65800;BME280;52544;48.116;11.660;2023-02-01T00:48:30;96140.47;;;3.79;77.86
65800;BME280;52544;48.116;11.660;2023-02-01T00:51:07;96137.69;;;3.82;79.21
65800;BME280;52544;48.116;11.660;2023-02-01T00:53:33;96129.31;;;3.75;80.69
65800;BME280;52544;48.116;11.660;2023-02-01T00:55:59;96134.22;;;3.64;82.30
65800;BME280;52544;48.116;11.660;2023-02-01T00:58:25;96127.19;;;3.47;84.95
65800;BME280;52544;48.116;11.660;2023-02-01T01:01:13;96133.72;;;3.38;87.17
65800;BME280;52544;48.116;11.660;2023-02-01T01:03:44;96128.09;;;3.29;89.86
65800;BME280;52544;48.116;11.660;2023-02-01T01:06:12;96128.81;;;3.13;91.97
65800;BME280;52544;48.116;11.660;2023-02-01T01:08:39;96123.72;;;3.10;94.54
65800;BME280;52544;48.116;11.660;2023-02-01T01:11:07;96124.97;;;3.01;95.81
65800;BME280;52544;48.116;11.660;2023-02-01T01:13:34;96118.78;;;3.04;96.66
65800;BME280;52544;48.116;11.660;2023-02-01T01:16:00;96127.81;;;2.97;96.49
65800;BME280;52544;48.116;11.660;2023-02-01T01:18:28;96123.53;;;2.96;96.96
65800;BME280;52544;48.116;11.660;2023-02-01T01:20:54;96122.53;;;2.80;97.79
65800;BME280;52544;48.116;11.660;2023-02-01T01:23:19;96114.25;;;2.89;97.67
65800;BME280;52544;48.116;11.660;2023-02-01T01:25:44;96116.50;;;2.96;95.58
65800;BME280;52544;48.116;11.660;2023-02-01T01:28:10;96121.19;;;2.90;96.78
65800;BME280;52544;48.116;11.660;2023-02-01T01:30:35;96122.81;;;2.92;97.40
65800;BME280;52544;48.116;11.660;2023-02-01T01:33:01;96109.59;;;2.95;96.66
65800;BME280;52544;48.116;11.660;2023-02-01T01:35:29;96110.44;;;2.96;96.66
65800;BME280;52544;48.116;11.660;2023-02-01T01:37:55;96114.53;;;3.01;96.03
65800;BME280;52544;48.116;11.660;2023-02-01T01:40:21;96108.53;;;2.99;96.31
65800;BME280;52544;48.116;11.660;2023-02-01T01:42:46;96106.63;;;3.03;97.66
65800;BME280;52544;48.116;11.660;2023-02-01T01:47:52;96101.41;;;3.03;98.84
65800;BME280;52544;48.116;11.660;2023-02-01T01:50:24;96097.94;;;3.03;99.94
65800;BME280;52544;48.116;11.660;2023-02-01T01:52:51;96082.75;;;2.92;100.00
65800;BME280;52544;48.116;11.660;2023-02-01T01:55:20;96083.66;;;2.91;100.00
65800;BME280;52544;48.116;11.660;2023-02-01T01:57:51;96075.03;;;2.89;100.00
65800;BME280;52544;48.116;11.660;2023-02-01T02:00:19;96071.53;;;2.90;100.00
65800;BME280;52544;48.116;11.660;2023-02-01T02:02:47;96067.50;;;2.83;100.00
65800;BME280;52544;48.116;11.660;2023-02-01T02:05:15;96060.19;;;2.72;100.00
65800;BME280;52544;48.116;11.660;2023-02-01T02:07:44;96060.63;;;2.80;100.00
65800;BME280;52544;48.116;11.660;2023-02-01T02:10:12;96059.31;;;2.71;100.00
65800;BME280;52544;48.116;11.660;2023-02-01T02:12:39;96056.56;;;2.74;100.00
65800;BME280;52544;48.116;11.660;2023-02-01T02:15:07;96068.78;;;2.74;100.00
65800;BME280;52544;48.116;11.660;2023-02-01T02:22:59;96059.47;;;2.68;100.00
65800;BME280;52544;48.116;11.660;2023-02-01T02:25:55;96067.81;;;2.77;100.00
65800;BME280;52544;48.116;11.660;2023-02-01T02:34:12;96084.38;;;2.75;100.00
65800;BME280;52544;48.116;11.660;2023-02-01T02:39:22;96077.81;;;2.86;100.00
65800;BME280;52544;48.116;11.660;2023-02-01T02:42:14;96072.41;;;2.89;100.00
65800;BME280;52544;48.116;11.660;2023-02-01T02:48:22;96065.38;;;2.91;100.00
65800;BME280;52544;48.116;11.660;2023-02-01T02:50:55;96066.28;;;2.90;100.00
65800;BME280;52544;48.116;11.660;2023-02-01T02:54:17;96060.84;;;2.94;100.00
65800;BME280;52544;48.116;11.660;2023-02-01T02:57:06;96053.00;;;2.94;100.00
65800;BME280;52544;48.116;11.660;2023-02-01T02:59:52;96052.06;;;2.95;100.00
65800;BME280;52544;48.116;11.660;2023-02-01T03:02:37;96059.16;;;2.93;100.00
65800;BME280;52544;48.116;11.660;2023-02-01T03:05:21;96060.50;;;3.02;100.00
65800;BME280;52544;48.116;11.660;2023-02-01T03:08:29;96048.16;;;3.04;100.00
65800;BME280;52544;48.116;11.660;2023-02-01T03:11:10;96042.31;;;2.99;100.00
65800;BME280;52544;48.116;11.660;2023-02-01T03:16:18;96047.69;;;2.96;100.00
65800;BME280;52544;48.116;11.660;2023-02-01T03:18:52;96049.53;;;2.94;100.00
65800;BME280;52544;48.116;11.660;2023-02-01T03:21:24;96043.88;;;3.03;100.00
65800;BME280;52544;48.116;11.660;2023-02-01T03:23:53;96042.94;;;3.04;99.22
65800;BME280;52544;48.116;11.660;2023-02-01T03:26:20;96037.56;;;3.07;99.05
65800;BME280;52544;48.116;11.660;2023-02-01T03:28:55;96035.94;;;3.05;98.95
65800;BME280;52544;48.116;11.660;2023-02-01T03:31:22;96047.25;;;3.05;99.04
65800;BME280;52544;48.116;11.660;2023-02-01T03:33:48;96039.03;;;3.13;98.16
65800;BME280;52544;48.116;11.660;2023-02-01T03:43:53;96050.28;;;3.15;97.68
65800;BME280;52544;48.116;11.660;2023-02-01T03:46:27;96044.19;;;3.14;97.00
65800;BME280;52544;48.116;11.660;2023-02-01T03:49:00;96038.53;;;3.23;96.78
65800;BME280;52544;48.116;11.660;2023-02-01T03:51:28;96029.28;;;3.16;96.18
65800;BME280;52544;48.116;11.660;2023-02-01T03:53:55;96037.72;;;3.21;95.63
65800;BME280;52544;48.116;11.660;2023-02-01T03:56:21;96027.59;;;3.15;96.11
65800;BME280;52544;48.116;11.660;2023-02-01T03:58:50;96027.63;;;3.14;96.65
65800;BME280;52544;48.116;11.660;2023-02-01T04:01:29;96029.03;;;3.21;96.25
65800;BME280;52544;48.116;11.660;2023-02-01T04:03:55;96036.81;;;3.22;95.20
65800;BME280;52544;48.116;11.660;2023-02-01T04:06:21;96025.59;;;3.20;95.44
65800;BME280;52544;48.116;11.660;2023-02-01T04:08:46;96028.59;;;3.30;94.57
65800;BME280;52544;48.116;11.660;2023-02-01T04:11:12;96037.59;;;3.24;94.29
65800;BME280;52544;48.116;11.660;2023-02-01T04:13:37;96029.44;;;3.31;93.99
65800;BME280;52544;48.116;11.660;2023-02-01T04:16:03;96035.31;;;3.36;92.94
65800;BME280;52544;48.116;11.660;2023-02-01T04:18:28;96037.28;;;3.31;93.30
65800;BME280;52544;48.116;11.660;2023-02-01T04:20:54;96045.22;;;3.29;93.92
65800;BME280;52544;48.116;11.660;2023-02-01T04:23:19;96035.44;;;3.33;93.24
65800;BME280;52544;48.116;11.660;2023-02-01T04:25:45;96045.53;;;3.40;92.80
65800;BME280;52544;48.116;11.660;2023-02-01T04:28:11;96030.50;;;3.44;92.27
65800;BME280;52544;48.116;11.660;2023-02-01T04:30:36;96032.50;;;3.39;91.96
65800;BME280;52544;48.116;11.660;2023-02-01T04:33:02;96031.56;;;3.40;92.06
65800;BME280;52544;48.116;11.660;2023-02-01T04:35:30;96031.56;;;3.40;91.67
65800;BME280;52544;48.116;11.660;2023-02-01T04:37:56;96028.28;;;3.36;91.66
65800;BME280;52544;48.116;11.660;2023-02-01T04:40:21;96023.72;;;3.40;91.74
65800;BME280;52544;48.116;11.660;2023-02-01T04:42:46;96022.22;;;3.36;91.92
65800;BME280;52544;48.116;11.660;2023-02-01T04:45:12;96017.38;;;3.28;91.53
65800;BME280;52544;48.116;11.660;2023-02-01T04:47:38;96029.38;;;3.32;91.65
65800;BME280;52544;48.116;11.660;2023-02-01T04:50:04;96029.28;;;3.34;91.68
65800;BME280;52544;48.116;11.660;2023-02-01T04:52:31;96038.13;;;3.31;91.43
65800;BME280;52544;48.116;11.660;2023-02-01T04:54:56;96039.41;;;3.22;91.75
65800;BME280;52544;48.116;11.660;2023-02-01T04:57:24;96035.59;;;3.30;91.17
65800;BME280;52544;48.116;11.660;2023-02-01T04:59:50;96041.19;;;3.39;90.42
65800;BME280;52544;48.116;11.660;2023-02-01T05:02:15;96033.44;;;3.38;90.00
65800;BME280;52544;48.116;11.660;2023-02-01T05:04:41;96024.66;;;3.39;90.14
65800;BME280;52544;48.116;11.660;2023-02-01T05:07:06;96016.56;;;3.43;89.55
65800;BME280;52544;48.116;11.660;2023-02-01T05:09:31;96028.91;;;3.41;89.46
65800;BME280;52544;48.116;11.660;2023-02-01T05:11:57;96015.97;;;3.38;89.22
65800;BME280;52544;48.116;11.660;2023-02-01T05:14:41;96016.53;;;3.45;88.87
65800;BME280;52544;48.116;11.660;2023-02-01T05:17:06;96027.22;;;3.40;89.41
65800;BME280;52544;48.116;11.660;2023-02-01T05:19:31;96028.22;;;3.38;89.11
65800;BME280;52544;48.116;11.660;2023-02-01T05:21:57;96030.91;;;3.36;89.54
65800;BME280;52544;48.116;11.660;2023-02-01T05:24:22;96020.28;;;3.39;88.58
65800;BME280;52544;48.116;11.660;2023-02-01T05:26:48;96035.91;;;3.41;88.69
65800;BME280;52544;48.116;11.660;2023-02-01T05:29:15;96027.28;;;3.39;88.18
65800;BME280;52544;48.116;11.660;2023-02-01T05:31:41;96032.44;;;3.40;88.94
65800;BME280;52544;48.116;11.660;2023-02-01T05:34:12;96045.44;;;3.42;88.30
65800;BME280;52544;48.116;11.660;2023-02-01T05:36:38;96041.28;;;3.38;88.91
65800;BME280;52544;48.116;11.660;2023-02-01T05:39:04;96043.91;;;3.38;88.51
65800;BME280;52544;48.116;11.660;2023-02-01T05:41:29;96035.75;;;3.44;88.32
65800;BME280;52544;48.116;11.660;2023-02-01T05:43:55;96044.06;;;3.35;88.74
65800;BME280;52544;48.116;11.660;2023-02-01T05:46:20;96034.97;;;3.42;87.54
65800;BME280;52544;48.116;11.660;2023-02-01T05:48:46;96033.44;;;3.38;88.08
65800;BME280;52544;48.116;11.660;2023-02-01T05:51:11;96013.44;;;3.37;88.49
65800;BME280;52544;48.116;11.660;2023-02-01T05:53:37;96029.06;;;3.38;88.32
65800;BME280;52544;48.116;11.660;2023-02-01T05:56:02;96015.88;;;3.40;87.80
65800;BME280;52544;48.116;11.660;2023-02-01T05:58:29;96026.06;;;3.46;87.99
65800;BME280;52544;48.116;11.660;2023-02-01T06:01:29;96020.22;;;3.41;87.76
65800;BME280;52544;48.116;11.660;2023-02-01T06:03:54;96017.13;;;3.33;88.37
65800;BME280;52544;48.116;11.660;2023-02-01T06:06:19;96019.44;;;3.39;88.67
65800;BME280;52544;48.116;11.660;2023-02-01T06:08:45;96020.97;;;3.43;88.23
65800;BME280;52544;48.116;11.660;2023-02-01T06:11:11;96002.75;;;3.41;87.85
65800;BME280;52544;48.116;11.660;2023-02-01T06:13:36;96008.03;;;3.40;87.97
65800;BME280;52544;48.116;11.660;2023-02-01T06:16:04;96020.59;;;3.33;88.75
65800;BME280;52544;48.116;11.660;2023-02-01T06:18:31;96022.13;;;3.37;88.45
65800;BME280;52544;48.116;11.660;2023-02-01T06:20:58;96011.81;;;3.34;88.73
65800;BME280;52544;48.116;11.660;2023-02-01T06:23:25;96026.66;;;3.34;88.66
65800;BME280;52544;48.116;11.660;2023-02-01T06:26:02;96027.59;;;3.33;89.04
65800;BME280;52544;48.116;11.660;2023-02-01T06:28:28;96023.13;;;3.35;88.48
65800;BME280;52544;48.116;11.660;2023-02-01T06:30:54;96026.53;;;3.37;88.03
65800;BME280;52544;48.116;11.660;2023-02-01T06:33:20;96037.13;;;3.34;88.57
65800;BME280;52544;48.116;11.660;2023-02-01T06:35:45;96033.28;;;3.41;88.41
65800;BME280;52544;48.116;11.660;2023-02-01T06:38:12;96033.59;;;3.35;89.10
65800;BME280;52544;48.116;11.660;2023-02-01T06:40:39;96028.13;;;3.39;88.14
65800;BME280;52544;48.116;11.660;2023-02-01T06:43:05;96028.44;;;3.33;88.74
65800;BME280;52544;48.116;11.660;2023-02-01T06:45:30;96028.34;;;3.35;87.99
65800;BME280;52544;48.116;11.660;2023-02-01T06:47:56;96034.06;;;3.43;87.40
65800;BME280;52544;48.116;11.660;2023-02-01T06:50:21;96035.81;;;3.42;87.52
65800;BME280;52544;48.116;11.660;2023-02-01T06:52:46;96025.13;;;3.47;86.81
65800;BME280;52544;48.116;11.660;2023-02-01T06:55:12;96031.44;;;3.43;87.67
65800;BME280;52544;48.116;11.660;2023-02-01T06:57:38;96029.44;;;3.48;87.36
65800;BME280;52544;48.116;11.660;2023-02-01T07:00:04;96037.69;;;3.58;86.45
65800;BME280;52544;48.116;11.660;2023-02-01T07:02:30;96036.19;;;3.52;86.08
65800;BME280;52544;48.116;11.660;2023-02-01T07:04:56;96017.38;;;3.45;86.95
65800;BME280;52544;48.116;11.660;2023-02-01T07:07:22;96025.22;;;3.45;86.68
65800;BME280;52544;48.116;11.660;2023-02-01T07:09:50;96030.31;;;3.48;87.09
65800;BME280;52544;48.116;11.660;2023-02-01T07:12:16;96030.13;;;3.51;86.91
65800;BME280;52544;48.116;11.660;2023-02-01T07:14:41;96024.88;;;3.51;87.01
65800;BME280;52544;48.116;11.660;2023-02-01T07:17:07;96027.28;;;3.56;86.50
65800;BME280;52544;48.116;11.660;2023-02-01T07:19:32;96023.06;;;3.54;86.58
65800;BME280;52544;48.116;11.660;2023-02-01T07:21:58;96026.66;;;3.51;86.79
65800;BME280;52544;48.116;11.660;2023-02-01T07:24:23;96023.13;;;3.52;86.77
65800;BME280;52544;48.116;11.660;2023-02-01T07:26:49;96010.34;;;3.46;87.48
65800;BME280;52544;48.116;11.660;2023-02-01T07:29:17;96017.28;;;3.47;87.79
65800;BME280;52544;48.116;11.660;2023-02-01T07:31:42;96005.03;;;3.47;87.08
65800;BME280;52544;48.116;11.660;2023-02-01T07:34:08;95991.72;;;3.52;85.91
65800;BME280;52544;48.116;11.660;2023-02-01T07:36:33;95986.78;;;3.63;85.29
65800;BME280;52544;48.116;11.660;2023-02-01T07:38:59;95982.38;;;3.64;84.95
65800;BME280;52544;48.116;11.660;2023-02-01T07:41:25;95990.34;;;3.62;84.42
65800;BME280;52544;48.116;11.660;2023-02-01T07:43:53;95983.84;;;3.69;83.78
65800;BME280;52544;48.116;11.660;2023-02-01T07:46:18;95982.34;;;3.65;84.23
65800;BME280;52544;48.116;11.660;2023-02-01T07:48:44;95991.69;;;3.69;83.97
65800;BME280;52544;48.116;11.660;2023-02-01T07:51:12;95991.25;;;3.79;82.93
65800;BME280;52544;48.116;11.660;2023-02-01T07:53:38;95989.63;;;3.76;82.90
65800;BME280;52544;48.116;11.660;2023-02-01T07:56:10;95986.53;;;3.68;83.25
65800;BME280;52544;48.116;11.660;2023-02-01T07:58:36;95985.16;;;3.78;82.35
65800;BME280;52544;48.116;11.660;2023-02-01T08:01:01;95993.91;;;3.77;82.62
65800;BME280;52544;48.116;11.660;2023-02-01T08:03:48;96001.78;;;3.77;82.36
65800;BME280;52544;48.116;11.660;2023-02-01T08:06:32;96009.56;;;3.79;82.70
65800;BME280;52544;48.116;11.660;2023-02-01T08:08:59;96005.88;;;3.83;81.75
65800;BME280;52544;48.116;11.660;2023-02-01T08:11:25;96018.88;;;3.84;81.31
65800;BME280;52544;48.116;11.660;2023-02-01T08:13:51;96015.00;;;3.91;80.87
65800;BME280;52544;48.116;11.660;2023-02-01T08:16:18;96031.47;;;3.93;79.96
65800;BME280;52544;48.116;11.660;2023-02-01T08:18:44;96021.19;;;4.06;79.16
65800;BME280;52544;48.116;11.660;2023-02-01T08:21:15;96031.53;;;4.09;78.47
65800;BME280;52544;48.116;11.660;2023-02-01T08:23:42;96036.63;;;4.12;78.07
65800;BME280;52544;48.116;11.660;2023-02-01T08:28:34;96026.19;;;4.11;78.12
65800;BME280;52544;48.116;11.660;2023-02-01T08:31:04;96027.72;;;4.15;77.92
65800;BME280;52544;48.116;11.660;2023-02-01T08:33:29;96044.28;;;4.15;77.57
65800;BME280;52544;48.116;11.660;2023-02-01T08:35:55;96050.31;;;4.17;77.21
65800;BME280;52544;48.116;11.660;2023-02-01T08:38:20;96052.84;;;4.19;76.93
65800;BME280;52544;48.116;11.660;2023-02-01T08:40:45;96047.50;;;4.20;76.71
65800;BME280;52544;48.116;11.660;2023-02-01T08:43:11;96036.13;;;4.21;76.10
65800;BME280;52544;48.116;11.660;2023-02-01T08:45:36;96026.22;;;4.26;75.70
65800;BME280;52544;48.116;11.660;2023-02-01T08:48:02;96027.91;;;4.28;75.53
65800;BME280;52544;48.116;11.660;2023-02-01T08:50:28;96024.06;;;4.35;75.45
65800;BME280;52544;48.116;11.660;2023-02-01T08:52:53;96041.47;;;4.36;75.34
65800;BME280;52544;48.116;11.660;2023-02-01T08:55:19;96032.41;;;4.41;74.55
65800;BME280;52544;48.116;11.660;2023-02-01T08:57:45;96021.47;;;4.50;74.10
65800;BME280;52544;48.116;11.660;2023-02-01T09:00:13;96032.84;;;4.49;73.83
65800;BME280;52544;48.116;11.660;2023-02-01T09:02:40;96027.69;;;4.48;73.45
65800;BME280;52544;48.116;11.660;2023-02-01T09:05:05;96013.50;;;4.52;73.39
65800;BME280;52544;48.116;11.660;2023-02-01T09:07:32;96016.88;;;4.54;73.25
65800;BME280;52544;48.116;11.660;2023-02-01T09:09:58;96019.22;;;4.59;73.06
65800;BME280;52544;48.116;11.660;2023-02-01T09:12:27;96033.28;;;4.58;72.88
65800;BME280;52544;48.116;11.660;2023-02-01T09:14:54;96029.81;;;4.57;72.54
65800;BME280;52544;48.116;11.660;2023-02-01T09:17:20;96042.59;;;4.63;72.28
65800;BME280;52544;48.116;11.660;2023-02-01T09:19:45;96037.00;;;4.69;71.57
65800;BME280;52544;48.116;11.660;2023-02-01T09:22:11;96036.25;;;4.67;71.85
65800;BME280;52544;48.116;11.660;2023-02-01T09:24:36;96022.03;;;4.71;71.55
65800;BME280;52544;48.116;11.660;2023-02-01T09:27:01;96018.41;;;4.74;71.52
65800;BME280;52544;48.116;11.660;2023-02-01T09:29:27;96032.94;;;4.80;71.69
65800;BME280;52544;48.116;11.660;2023-02-01T09:31:52;96037.94;;;4.84;71.57
65800;BME280;52544;48.116;11.660;2023-02-01T09:34:18;96030.31;;;4.80;71.67
65800;BME280;52544;48.116;11.660;2023-02-01T09:36:43;96023.81;;;4.87;71.19
65800;BME280;52544;48.116;11.660;2023-02-01T09:39:09;96032.63;;;4.86;72.09
65800;BME280;52544;48.116;11.660;2023-02-01T09:44:52;96040.91;;;4.94;71.78
65800;BME280;52544;48.116;11.660;2023-02-01T09:47:23;96040.66;;;4.98;71.84
65800;BME280;52544;48.116;11.660;2023-02-01T09:50:00;96043.94;;;5.02;71.21
65800;BME280;52544;48.116;11.660;2023-02-01T09:52:40;96053.34;;;5.06;71.79
65800;BME280;52544;48.116;11.660;2023-02-01T09:55:16;96061.84;;;5.10;71.78
65800;BME280;52544;48.116;11.660;2023-02-01T10:00:53;96052.25;;;5.10;71.34
65800;BME280;52544;48.116;11.660;2023-02-01T10:03:20;96059.22;;;5.10;70.97
65800;BME280;52544;48.116;11.660;2023-02-01T10:09:10;96051.56;;;5.07;71.23
65800;BME280;52544;48.116;11.660;2023-02-01T10:20:17;96055.97;;;5.06;71.70
65800;BME280;52544;48.116;11.660;2023-02-01T10:28:16;96046.63;;;5.00;71.13
65800;BME280;52544;48.116;11.660;2023-02-01T10:30:45;96049.00;;;5.05;71.11
65800;BME280;52544;48.116;11.660;2023-02-01T10:33:18;96050.88;;;5.03;71.56
65800;BME280;52544;48.116;11.660;2023-02-01T10:35:46;96061.13;;;5.08;71.91
65800;BME280;52544;48.116;11.660;2023-02-01T10:38:27;96034.78;;;5.09;71.34
65800;BME280;52544;48.116;11.660;2023-02-01T10:40:55;96039.59;;;5.01;71.22
65800;BME280;52544;48.116;11.660;2023-02-01T10:43:24;96053.75;;;4.98;72.27
65800;BME280;52544;48.116;11.660;2023-02-01T10:45:49;96054.44;;;5.02;71.52
65800;BME280;52544;48.116;11.660;2023-02-01T10:48:15;96068.25;;;5.06;71.69
65800;BME280;52544;48.116;11.660;2023-02-01T10:51:14;96050.09;;;5.01;72.41
65800;BME280;52544;48.116;11.660;2023-02-01T10:53:42;96053.34;;;5.06;71.75
65800;BME280;52544;48.116;11.660;2023-02-01T10:56:10;96060.44;;;5.04;72.32
65800;BME280;52544;48.116;11.660;2023-02-01T10:58:44;96060.53;;;5.03;72.41
65800;BME280;52544;48.116;11.660;2023-02-01T11:01:16;96057.13;;;5.00;72.75
65800;BME280;52544;48.116;11.660;2023-02-01T11:03:57;96061.53;;;5.00;72.46
65800;BME280;52544;48.116;11.660;2023-02-01T11:06:29;96059.34;;;4.92;72.90
65800;BME280;52544;48.116;11.660;2023-02-01T11:09:29;96063.47;;;4.96;72.44
65800;BME280;52544;48.116;11.660;2023-02-01T11:11:59;96072.53;;;4.91;74.09
65800;BME280;52544;48.116;11.660;2023-02-01T11:16:56;96073.38;;;5.07;74.25
65800;BME280;52544;48.116;11.660;2023-02-01T11:19:23;96063.22;;;5.17;73.59
65800;BME280;52544;48.116;11.660;2023-02-01T11:21:55;96072.03;;;5.16;74.32
65800;BME280;52544;48.116;11.660;2023-02-01T11:24:35;96059.16;;;5.27;73.45
65800;BME280;52544;48.116;11.660;2023-02-01T11:27:03;96067.94;;;5.26;72.33
65800;BME280;52544;48.116;11.660;2023-02-01T11:29:35;96080.47;;;5.21;73.35
65800;BME280;52544;48.116;11.660;2023-02-01T11:32:01;96084.22;;;5.17;73.14
65800;BME280;52544;48.116;11.660;2023-02-01T11:34:50;96066.47;;;5.06;72.86
65800;BME280;52544;48.116;11.660;2023-02-01T11:37:37;96076.59;;;4.96;74.05
65800;BME280;52544;48.116;11.660;2023-02-01T11:40:25;96071.34;;;4.96;73.98
65800;BME280;52544;48.116;11.660;2023-02-01T11:45:34;96073.72;;;4.85;74.58
65800;BME280;52544;48.116;11.660;2023-02-01T11:48:10;96072.81;;;4.86;74.75
65800;BME280;52544;48.116;11.660;2023-02-01T11:59:08;96058.31;;;4.79;73.90
65800;BME280;52544;48.116;11.660;2023-02-01T12:04:48;96052.59;;;4.72;74.96
65800;BME280;52544;48.116;11.660;2023-02-01T12:07:26;96051.06;;;4.68;75.49
65800;BME280;52544;48.116;11.660;2023-02-01T12:12:32;96049.03;;;4.73;74.40
65800;BME280;52544;48.116;11.660;2023-02-01T12:26:33;96036.91;;;4.71;75.40
65800;BME280;52544;48.116;11.660;2023-02-01T12:36:47;96022.66;;;4.76;73.81
65800;BME280;52544;48.116;11.660;2023-02-01T12:39:39;96032.44;;;4.73;73.62
65800;BME280;52544;48.116;11.660;2023-02-01T12:42:15;96018.81;;;4.66;74.15
65800;BME280;52544;48.116;11.660;2023-02-01T12:47:24;96029.06;;;4.71;75.15
65800;BME280;52544;48.116;11.660;2023-02-01T12:50:38;96024.50;;;4.74;73.75
65800;BME280;52544;48.116;11.660;2023-02-01T12:53:26;96003.09;;;4.66;73.03
65800;BME280;52544;48.116;11.660;2023-02-01T12:55:55;95999.28;;;4.56;72.92
65800;BME280;52544;48.116;11.660;2023-02-01T13:01:02;95993.91;;;4.59;71.72
65800;BME280;52544;48.116;11.660;2023-02-01T13:06:12;95987.88;;;4.57;71.53
65800;BME280;52544;48.116;11.660;2023-02-01T13:09:22;95971.81;;;4.63;69.99
65800;BME280;52544;48.116;11.660;2023-02-01T13:11:49;95983.31;;;4.61;71.68
65800;BME280;52544;48.116;11.660;2023-02-01T13:14:27;95984.56;;;4.69;71.03
65800;BME280;52544;48.116;11.660;2023-02-01T13:17:14;95976.63;;;4.71;70.40
65800;BME280;52544;48.116;11.660;2023-02-01T13:20:30;95973.94;;;4.72;70.68
65800;BME280;52544;48.116;11.660;2023-02-01T13:23:04;95974.94;;;4.70;70.51
65800;BME280;52544;48.116;11.660;2023-02-01T13:25:49;95972.03;;;4.74;70.84
65800;BME280;52544;48.116;11.660;2023-02-01T13:28:25;95974.94;;;4.70;71.62
65800;BME280;52544;48.116;11.660;2023-02-01T13:39:43;95970.38;;;4.73;73.26
65800;BME280;52544;48.116;11.660;2023-02-01T13:42:18;95971.03;;;4.77;74.17
65800;BME280;52544;48.116;11.660;2023-02-01T13:44:49;95975.44;;;4.76;73.55
65800;BME280;52544;48.116;11.660;2023-02-01T13:47:30;95966.47;;;4.81;74.39
65800;BME280;52544;48.116;11.660;2023-02-01T13:50:00;95976.75;;;4.99;77.27
65800;BME280;52544;48.116;11.660;2023-02-01T13:55:03;95970.94;;;5.24;76.18
65800;BME280;52544;48.116;11.660;2023-02-01T13:57:40;95985.34;;;5.17;75.26
65800;BME280;52544;48.116;11.660;2023-02-01T14:00:27;95984.09;;;5.09;74.28
65800;BME280;52544;48.116;11.660;2023-02-01T14:13:36;95997.59;;;4.71;76.75
65800;BME280;52544;48.116;11.660;2023-02-01T14:23:59;95991.44;;;4.72;76.74
65800;BME280;52544;48.116;11.660;2023-02-01T14:26:40;95985.50;;;4.68;75.97
65800;BME280;52544;48.116;11.660;2023-02-01T14:29:21;95991.69;;;4.67;75.61
65800;BME280;52544;48.116;11.660;2023-02-01T14:39:53;95993.63;;;4.64;74.66
65800;BME280;52544;48.116;11.660;2023-02-01T14:47:51;95999.63;;;4.50;72.49
65800;BME280;52544;48.116;11.660;2023-02-01T15:00:55;95978.84;;;4.47;72.72
65800;BME280;52544;48.116;11.660;2023-02-01T15:03:45;95985.75;;;4.48;72.97
65800;BME280;52544;48.116;11.660;2023-02-01T15:06:39;95978.31;;;4.40;73.20
65800;BME280;52544;48.116;11.660;2023-02-01T15:14:43;95989.47;;;4.44;73.54
65800;BME280;52544;48.116;11.660;2023-02-01T15:17:25;95995.56;;;4.44;73.67
65800;BME280;52544;48.116;11.660;2023-02-01T15:19:58;96003.53;;;4.43;74.41
65800;BME280;52544;48.116;11.660;2023-02-01T15:22:25;96005.38;;;4.41;74.31
65800;BME280;52544;48.116;11.660;2023-02-01T15:24:58;96000.22;;;4.39;75.14
65800;BME280;52544;48.116;11.660;2023-02-01T15:27:25;96006.13;;;4.43;75.40
65800;BME280;52544;48.116;11.660;2023-02-01T15:29:51;96005.88;;;4.32;76.40
65800;BME280;52544;48.116;11.660;2023-02-01T15:32:34;95999.78;;;4.31;76.63
65800;BME280;52544;48.116;11.660;2023-02-01T15:35:01;96026.97;;;4.29;76.76
65800;BME280;52544;48.116;11.660;2023-02-01T15:37:27;96023.94;;;4.20;77.20
65800;BME280;52544;48.116;11.660;2023-02-01T15:42:35;96033.22;;;4.10;79.01
65800;BME280;52544;48.116;11.660;2023-02-01T15:45:01;96026.28;;;4.09;80.25
65800;BME280;52544;48.116;11.660;2023-02-01T15:47:28;96018.59;;;4.06;81.42
65800;BME280;52544;48.116;11.660;2023-02-01T15:49:58;96015.66;;;3.95;82.55
65800;BME280;52544;48.116;11.660;2023-02-01T15:52:35;96025.41;;;3.93;83.99
65800;BME280;52544;48.116;11.660;2023-02-01T15:55:23;96033.41;;;3.90;84.77
65800;BME280;52544;48.116;11.660;2023-02-01T15:57:54;96024.84;;;3.86;83.96
65800;BME280;52544;48.116;11.660;2023-02-01T16:00:27;96030.97;;;3.87;84.45
65800;BME280;52544;48.116;11.660;2023-02-01T16:03:05;96034.47;;;3.86;84.43